Time;durP1;ratioP1;P1;durP2;ratioP2;P2;SDS_P1;SDS_P2;PMS_P1;PMS_P2;Temp;Humidity;BMP_temperature;BMP_pressure;BME280_temperature;BME280_humidity;BME280_pressure;Samples;Min_cycle;Max_cycle;Signal;HPM_P1;HPM_P2
2022/03/21 00:00:59;;;;;;;77.55;54.72;;;;;;;0.71;100.00;102822.53;5034157;28;20117;-48
2022/03/21 00:03:26;;;;;;;73.47;55.42;;;;;;;0.75;100.00;102842.56;5034369;28;20073;-51
2022/03/21 00:05:52;;;;;;;80.05;55.25;;;;;;;0.42;100.00;102789.38;5034405;28;20104;-48
2022/03/21 00:08:18;;;;;;;75.15;54.53;;;;;;;0.70;100.00;102844.06;4999994;28;20037;-50
2022/03/21 00:10:45;;;;;;;76.60;56.72;;;;;;;0.68;100.00;102848.31;5033560;28;20423;-48
2022/03/21 00:13:15;;;;;;;80.57;56.38;;;;;;;0.68;100.00;102844.84;5034008;28;20029;-48
2022/03/21 00:15:41;;;;;;;77.17;55.50;;;;;;;0.77;100.00;102853.88;5016841;28;20040;-46
2022/03/21 00:18:07;;;;;;;76.20;54.45;;;;;;;0.82;100.00;102846.25;5034142;28;20029;-49
2022/03/21 00:20:33;;;;;;;72.85;53.13;;;;;;;0.84;100.00;102842.03;5016332;28;20063;-47
2022/03/21 00:22:59;;;;;;;70.72;52.63;;;;;;;0.75;100.00;102832.19;5016128;28;20086;-45
2022/03/21 00:25:24;;;;;;;75.75;56.35;;;;;;;0.56;100.00;102807.25;5016120;28;20025;-49
2022/03/21 00:27:49;;;;;;;79.10;55.33;;;;;;;0.75;100.00;102842.56;5033790;28;20042;-47
2022/03/21 00:30:16;;;;;;;72.80;52.30;;;;;;;0.77;100.00;102851.28;5015793;28;20061;-46
2022/03/21 00:32:42;;;;;;;78.72;53.03;;;;;;;0.77;100.00;102840.91;5033641;28;20037;-46
2022/03/21 00:35:09;;;;;;;68.60;52.45;;;;;;;0.80;100.00;102842.72;5033666;28;20369;-50
2022/03/21 00:37:36;;;;;;;70.70;51.50;;;;;;;0.79;100.00;102839.25;5034029;28;20144;-46
2022/03/21 00:40:02;;;;;;;74.57;53.45;;;;;;;0.77;100.00;102845.19;5033271;28;20037;-42
2022/03/21 00:42:28;;;;;;;69.78;50.85;;;;;;;0.71;100.00;102840.66;5015483;28;20041;-49
2022/03/21 00:44:56;;;;;;;69.07;51.90;;;;;;;0.66;100.00;102851.69;5015802;28;20443;-47
2022/03/21 00:47:22;;;;;;;69.80;51.13;;;;;;;0.60;100.00;102847.13;5033393;28;20069;-49
2022/03/21 00:49:48;;;;;;;76.63;53.55;;;;;;;0.22;100.00;102787.72;5033380;28;20033;-47
2022/03/21 00:52:14;;;;;;;75.80;53.63;;;;;;;0.13;100.00;102785.63;5033234;28;20073;-47
2022/03/21 00:54:39;;;;;;;71.38;51.20;;;;;;;0.48;100.00;102850.13;5033392;28;20072;-47
2022/03/21 00:57:05;;;;;;;72.00;52.03;;;;;;;0.42;100.00;102855.03;5015357;28;20044;-52
2022/03/21 00:59:30;;;;;;;74.30;53.85;;;;;;;0.39;100.00;102852.34;5033110;28;20052;-46
2022/03/21 01:01:55;;;;;;;72.13;50.88;;;;;;;0.25;100.00;102830.16;5015510;28;20124;-51
2022/03/21 01:04:21;;;;;;;73.63;52.42;;;;;;;0.21;100.00;102836.03;5015282;28;20045;-48
2022/03/21 01:06:46;;;;;;;75.90;52.95;;;;;;;0.29;100.00;102854.50;5033081;28;20030;-49
2022/03/21 01:09:14;;;;;;;74.10;50.88;;;;;;;0.06;100.00;102830.22;5015355;28;20069;-49
2022/03/21 01:11:40;;;;;;;76.05;52.60;;;;;;;0.21;100.00;102850.69;5032719;28;20041;-47
2022/03/21 01:14:05;;;;;;;73.40;51.33;;;;;;;-0.21;100.00;102787.66;5032968;28;20393;-47
2022/03/21 01:16:30;;;;;;;74.15;52.97;;;;;;;0.17;100.00;102875.59;5032840;28;20045;-45
2022/03/21 01:18:56;;;;;;;75.05;51.53;;;;;;;-0.27;100.00;102792.56;5032909;28;20025;-49
2022/03/21 01:21:21;;;;;;;72.75;54.17;;;;;;;-0.33;100.00;102788.03;5032543;28;20119;-53
2022/03/21 01:23:47;;;;;;;73.18;53.65;;;;;;;-0.26;100.00;102818.50;5032276;28;20038;-48
2022/03/21 01:26:12;;;;;;;70.35;50.83;;;;;;;-0.39;100.00;102786.88;5014821;28;20064;-47
2022/03/21 01:28:38;;;;;;;79.57;53.05;;;;;;;-0.01;100.00;102857.56;5014708;28;20037;-45
2022/03/21 01:31:03;;;;;;;75.50;52.20;;;;;;;-0.33;100.00;102813.91;5014761;28;20099;-45
2022/03/21 01:33:31;;;;;;;75.95;52.80;;;;;;;-0.04;100.00;102866.91;5032509;28;20563;-45
2022/03/21 01:35:56;;;;;;;74.43;51.92;;;;;;;-0.06;100.00;102865.97;5032618;28;20044;-47
2022/03/21 01:38:22;;;;;;;74.28;52.28;;;;;;;-0.07;100.00;102864.19;5032256;28;20485;-49
2022/03/21 01:40:47;;;;;;;75.68;52.65;;;;;;;-0.08;100.00;102875.34;5014536;28;20076;-45
2022/03/21 01:43:13;;;;;;;75.60;55.00;;;;;;;-0.10;100.00;102872.69;5032484;28;20480;-52
2022/03/21 01:45:39;;;;;;;81.25;55.40;;;;;;;-0.12;100.00;102866.56;5032330;28;20132;-49
2022/03/21 01:48:05;;;;;;;74.10;54.03;;;;;;;-0.15;100.00;102869.03;5032129;28;20025;-46
2022/03/21 01:50:30;;;;;;;81.07;53.33;;;;;;;-0.16;100.00;102887.97;5014489;28;20045;-47
2022/03/21 01:55:43;;;;;;;73.20;49.60;;;;;;;-0.25;100.00;102864.28;5032474;28;20138;-46
2022/03/21 01:58:09;;;;;;;73.45;52.40;;;;;;;-0.28;100.00;102869.31;4998495;28;20040;-47
2022/03/21 02:00:34;;;;;;;78.88;52.58;;;;;;;-0.24;100.00;102870.34;5032122;28;20041;-48
2022/03/21 02:03:00;;;;;;;76.53;53.58;;;;;;;-0.27;100.00;102875.38;5032169;28;20473;-46
2022/03/21 02:05:25;;;;;;;74.40;52.30;;;;;;;-1.72;100.00;102634.44;5032039;28;20148;-50
2022/03/21 02:07:51;;;;;;;74.47;52.25;;;;;;;-0.39;100.00;102861.91;5014430;28;20060;-52
2022/03/21 02:10:16;;;;;;;78.28;53.25;;;;;;;-0.33;100.00;102872.50;5014104;28;20029;-49
2022/03/21 02:12:42;;;;;;;74.25;52.30;;;;;;;-0.32;100.00;102880.31;5032065;28;20128;-52
2022/03/21 02:15:08;;;;;;;78.97;52.65;;;;;;;-0.51;100.00;102857.06;5031907;28;20034;-44
2022/03/21 02:17:35;;;;;;;83.88;55.08;;;;;;;-0.47;100.00;102856.41;5031901;28;20021;-48
2022/03/21 02:20:02;;;;;;;78.40;55.42;;;;;;;-0.39;100.00;102880.91;5014397;28;20075;-48
2022/03/21 02:22:33;;;;;;;84.47;55.20;;;;;;;-0.45;100.00;102867.69;5014464;28;20079;-45
2022/03/21 02:25:25;;;;;;;81.38;56.45;;;;;;;-0.44;100.00;102877.22;5014370;28;20029;-48
2022/03/21 02:27:51;;;;;;;80.18;53.78;;;;;;;-0.79;100.00;102818.72;5031781;28;20060;-48
2022/03/21 02:30:17;;;;;;;79.28;54.38;;;;;;;-0.73;100.00;102831.06;5014111;28;20502;-49
2022/03/21 02:32:42;;;;;;;83.40;56.33;;;;;;;-0.75;100.00;102828.41;4997755;28;20065;-50
2022/03/21 02:35:09;;;;;;;82.20;53.90;;;;;;;-0.54;100.00;102864.69;5035239;28;20061;-49
2022/03/21 02:37:36;;;;;;;79.78;55.35;;;;;;;-0.61;100.00;102848.00;5018283;28;20045;-48
2022/03/21 02:40:01;;;;;;;75.95;54.47;;;;;;;-0.46;100.00;102880.53;5036024;28;20036;-51
2022/03/21 02:42:27;;;;;;;85.00;55.83;;;;;;;-0.47;100.00;102879.69;5001520;28;20029;-51
2022/03/21 02:44:52;;;;;;;89.10;56.88;;;;;;;-0.47;100.00;102882.25;5035634;28;20472;-52
2022/03/21 02:47:17;;;;;;;78.88;54.15;;;;;;;-0.52;100.00;102881.16;5018087;28;20044;-47
2022/03/21 02:49:43;;;;;;;81.18;56.58;;;;;;;-0.61;100.00;102860.94;5017917;28;20545;-50
2022/03/21 02:52:10;;;;;;;87.00;56.80;;;;;;;-0.53;100.00;102894.03;5001743;28;20392;-45
2022/03/21 02:54:35;;;;;;;85.50;56.58;;;;;;;-0.54;100.00;102881.91;5017987;28;20443;-50
2022/03/21 02:57:01;;;;;;;80.15;54.92;;;;;;;-0.59;100.00;102877.44;5035628;28;20037;-47
2022/03/21 02:59:27;;;;;;;85.35;57.88;;;;;;;-0.59;100.00;102876.53;5017701;28;20041;-50
2022/03/21 03:01:53;;;;;;;86.95;58.15;;;;;;;-0.70;100.00;102870.84;5035493;28;20025;-48
2022/03/21 03:04:25;;;;;;;85.85;55.75;;;;;;;-0.61;100.00;102893.66;5035282;28;20033;-48
2022/03/21 03:06:51;;;;;;;84.05;57.13;;;;;;;-0.68;100.00;102878.69;5017753;28;20037;-45
2022/03/21 03:09:16;;;;;;;82.68;56.60;;;;;;;-0.96;100.00;102826.56;5035177;28;20087;-51
2022/03/21 03:11:42;;;;;;;86.32;58.03;;;;;;;-0.63;100.00;102883.25;5035087;28;20037;-46
2022/03/21 03:14:07;;;;;;;84.28;57.10;;;;;;;-0.77;100.00;102868.81;5017549;28;20026;-48
2022/03/21 03:16:34;;;;;;;83.55;55.75;;;;;;;-0.87;100.00;102857.97;5035350;28;20026;-49
2022/03/21 03:18:59;;;;;;;85.22;57.35;;;;;;;-0.66;100.00;102880.53;5035255;28;20044;-49
2022/03/21 03:21:26;;;;;;;80.65;56.15;;;;;;;-0.68;100.00;102878.69;5017577;28;20124;-49
2022/03/21 03:23:52;;;;;;;83.60;56.85;;;;;;;-0.82;100.00;102857.41;5035180;28;20404;-50
2022/03/21 03:26:17;;;;;;;87.78;57.53;;;;;;;-0.71;100.00;102892.38;5035256;28;20037;-49
2022/03/21 03:28:43;;;;;;;86.82;56.83;;;;;;;-0.78;100.00;102885.16;5017218;28;20029;-47
2022/03/21 03:31:09;;;;;;;84.53;57.10;;;;;;;-0.76;100.00;102891.25;5017164;28;20058;-47
2022/03/21 03:33:35;;;;;;;85.57;57.97;;;;;;;-0.76;100.00;102887.81;5034788;28;20029;-47
2022/03/21 03:36:00;;;;;;;91.88;59.60;;;;;;;-0.73;100.00;102895.72;5000630;28;20524;-51
2022/03/21 03:38:26;;;;;;;91.57;61.40;;;;;;;-1.04;100.00;102827.88;5034613;28;20034;-56
2022/03/21 03:40:54;;;;;;;96.90;61.10;;;;;;;-0.66;100.00;102902.91;5017224;28;20036;-50
2022/03/21 03:43:20;;;;;;;84.10;57.88;;;;;;;-1.01;100.00;102834.09;5034681;28;20033;-47
2022/03/21 03:45:48;;;;;;;87.03;59.70;;;;;;;-0.55;100.00;102901.69;5016525;28;20083;-48
2022/03/21 03:48:14;;;;;;;86.78;59.10;;;;;;;-0.51;100.00;102901.03;5034985;28;20033;-46
2022/03/21 03:50:40;;;;;;;87.85;57.95;;;;;;;-0.48;100.00;102900.28;5034420;28;20045;-51
2022/03/21 03:53:05;;;;;;;88.45;59.25;;;;;;;-0.43;100.00;102906.53;5034587;28;20082;-47
2022/03/21 03:55:30;;;;;;;80.18;58.00;;;;;;;-0.47;100.00;102897.78;5034525;28;20038;-51
2022/03/21 03:57:56;;;;;;;88.95;58.33;;;;;;;-0.49;100.00;102894.22;5034619;28;20033;-52
2022/03/21 04:00:21;;;;;;;85.78;59.20;;;;;;;-0.36;100.00;102898.25;5034715;28;20396;-50
2022/03/21 04:05:30;;;;;;;88.88;59.65;;;;;;;-0.70;100.00;102829.47;5034459;28;20053;-47
2022/03/21 04:07:56;;;;;;;90.10;58.67;;;;;;;-0.21;100.00;102905.00;5034476;28;20026;-46
2022/03/21 04:10:22;;;;;;;87.43;60.15;;;;;;;-0.54;100.00;102836.22;5034227;28;20055;-48
2022/03/21 04:12:51;;;;;;;87.65;60.53;;;;;;;-0.36;100.00;102849.09;5016783;28;20060;-50
2022/03/21 04:15:18;;;;;;;87.03;60.25;;;;;;;-0.76;100.00;102769.72;5016688;28;20026;-48
2022/03/21 04:17:44;;;;;;;84.97;58.95;;;;;;;-0.04;100.00;102892.78;5034483;28;20026;-49
2022/03/21 04:20:10;;;;;;;82.18;56.60;;;;;;;0.04;100.00;102911.22;5016334;28;20559;-47
2022/03/21 04:22:36;;;;;;;82.20;56.38;;;;;;;-0.01;100.00;102914.53;5016383;28;20143;-48
2022/03/21 04:25:03;;;;;;;79.70;56.97;;;;;;;-0.19;100.00;102882.66;5016257;28;20540;-45
2022/03/21 04:27:28;;;;;;;81.32;55.58;;;;;;;-0.10;100.00;102921.88;5015787;28;20044;-49
2022/03/21 04:29:54;;;;;;;75.82;54.80;;;;;;;-0.14;100.00;102908.72;5033396;28;20037;-49
2022/03/21 04:32:19;;;;;;;81.85;57.65;;;;;;;-0.28;100.00;102889.13;4999492;28;20053;-48
2022/03/21 04:34:44;;;;;;;82.93;54.53;;;;;;;-0.21;100.00;102912.78;5031953;28;20046;-50
2022/03/21 04:37:10;;;;;;;82.30;56.53;;;;;;;-0.57;100.00;102859.38;5033812;28;20279;-47
2022/03/21 04:39:35;;;;;;;84.10;56.42;;;;;;;-0.28;100.00;102923.66;4983551;28;20026;-47
2022/03/21 04:42:01;;;;;;;84.57;56.05;;;;;;;-0.31;100.00;102915.75;5016139;28;20037;-47
2022/03/21 04:44:26;;;;;;;81.53;57.25;;;;;;;-0.33;100.00;102921.69;5033755;28;20076;-50
2022/03/21 04:46:52;;;;;;;82.53;57.72;;;;;;;-0.36;100.00;102914.66;5033902;28;20088;-47
2022/03/21 04:49:18;;;;;;;81.43;54.92;;;;;;;-0.42;100.00;102926.44;5033395;28;20065;-47
2022/03/21 04:51:43;;;;;;;81.80;56.45;;;;;;;-0.47;100.00;102926.25;5033600;28;20041;-47
2022/03/21 04:54:08;;;;;;;85.18;56.95;;;;;;;-0.50;100.00;102923.53;5033110;28;20034;-49
2022/03/21 04:56:34;;;;;;;80.53;57.00;;;;;;;-0.59;100.00;102905.88;5033803;28;20033;-47
2022/03/21 04:58:59;;;;;;;81.15;55.55;;;;;;;-0.42;100.00;102931.63;5015587;28;20034;-52
2022/03/21 05:01:24;;;;;;;86.07;57.92;;;;;;;-0.41;100.00;102928.22;5033315;28;20029;-45
2022/03/21 05:03:50;;;;;;;82.63;57.05;;;;;;;-0.49;100.00;102922.69;5033593;28;20200;-49
2022/03/21 05:06:16;;;;;;;90.78;60.22;;;;;;;-0.42;100.00;102918.69;5015592;28;20515;-48
2022/03/21 05:08:42;;;;;;;84.90;58.22;;;;;;;-0.77;100.00;102862.75;5033201;28;20029;-46
2022/03/21 05:11:08;;;;;;;82.60;58.80;;;;;;;-0.40;100.00;102937.72;4998887;28;20041;-51
2022/03/21 05:13:33;;;;;;;89.25;59.65;;;;;;;-0.42;100.00;102929.03;5032993;28;20448;-49
2022/03/21 05:15:59;;;;;;;78.68;55.25;;;;;;;-0.44;100.00;102928.97;5015661;28;20032;-45
2022/03/21 05:18:24;;;;;;;83.47;57.83;;;;;;;-0.47;100.00;102939.19;5033097;28;20392;-50
2022/03/21 05:20:50;;;;;;;85.68;57.78;;;;;;;-0.50;100.00;102943.31;5032987;28;20026;-51
2022/03/21 05:31:27;;;;;;;82.22;57.22;;;;;;;-0.74;100.00;102946.53;5032971;28;20091;-52
2022/03/21 05:36:36;;;;;;;84.65;55.88;;;;;;;-0.79;100.00;102950.59;5032963;28;20103;-46
2022/03/21 05:39:02;;;;;;;91.20;59.65;;;;;;;-0.79;100.00;102949.72;5032710;28;20025;-50
2022/03/21 05:41:28;;;;;;;84.75;57.58;;;;;;;-0.81;100.00;102951.34;5032603;28;20033;-48
2022/03/21 05:43:54;;;;;;;89.35;58.58;;;;;;;-0.86;100.00;102945.97;5014889;28;20128;-47
2022/03/21 05:46:19;;;;;;;86.85;58.60;;;;;;;-0.86;100.00;102943.38;5014675;28;20366;-51
2022/03/21 05:48:51;;;;;;;90.13;60.22;;;;;;;-1.22;100.00;102887.34;4998615;28;20030;-49
2022/03/21 05:51:30;;;;;;;87.00;58.90;;;;;;;-0.79;100.00;102960.94;5015766;28;20029;-47
2022/03/21 05:53:57;;;;;;;89.55;57.03;;;;;;;-0.81;100.00;102972.91;5032322;28;20485;-48
2022/03/21 05:56:25;;;;;;;88.32;58.92;;;;;;;-1.22;100.00;102885.66;5032286;28;20537;-49
2022/03/21 05:58:51;;;;;;;82.43;57.30;;;;;;;-1.09;100.00;102904.31;5032057;28;20041;-48
2022/03/21 06:01:21;;;;;;;83.43;56.65;;;;;;;-0.74;100.00;102969.81;5032288;28;20518;-47
2022/03/21 06:03:48;;;;;;;84.05;57.28;;;;;;;-0.73;100.00;102968.13;5032494;28;20432;-47
2022/03/21 06:06:14;;;;;;;87.93;59.63;;;;;;;-0.72;100.00;102970.78;5032420;28;20128;-47
2022/03/21 06:08:39;;;;;;;88.18;57.58;;;;;;;-1.06;100.00;102904.47;5031889;28;20030;-45
2022/03/21 06:11:05;;;;;;;92.80;63.30;;;;;;;-0.65;100.00;102965.09;5031951;28;20120;-50
2022/03/21 06:13:35;;;;;;;84.97;55.90;;;;;;;-0.63;100.00;102968.63;5032172;28;20113;-50
2022/03/21 06:16:03;;;;;;;88.80;59.30;;;;;;;-0.65;100.00;102957.31;5032338;28;20081;-47
2022/03/21 06:18:28;;;;;;;87.63;59.85;;;;;;;-0.52;100.00;102978.56;5031981;28;20065;-49
2022/03/21 06:20:54;;;;;;;84.05;57.10;;;;;;;-0.46;100.00;102986.59;5014617;28;20061;-45
2022/03/21 06:23:19;;;;;;;92.40;61.25;;;;;;;-0.41;100.00;102986.03;5031906;28;20053;-49
2022/03/21 06:25:45;;;;;;;84.95;58.40;;;;;;;-0.40;100.00;102979.13;5014416;28;20074;-47
2022/03/21 06:28:10;;;;;;;89.03;59.45;;;;;;;-0.28;100.00;102987.47;5031982;28;20061;-51
2022/03/21 06:30:35;;;;;;;93.10;61.00;;;;;;;-0.20;100.00;102999.94;5031862;28;20098;-47
2022/03/21 06:33:01;;;;;;;87.65;59.20;;;;;;;-0.52;100.00;102917.38;5032028;28;20080;-50
2022/03/21 06:35:26;;;;;;;90.22;60.88;;;;;;;0.03;100.00;102987.16;5031883;28;20032;-46
2022/03/21 06:37:51;;;;;;;85.07;60.17;;;;;;;0.15;100.00;102980.78;5031782;28;20529;-47
2022/03/21 06:40:17;;;;;;;90.25;63.58;;;;;;;0.11;100.00;102923.63;5031775;28;20582;-50
2022/03/21 06:42:42;;;;;;;85.20;60.95;;;;;;;0.49;100.00;102942.59;5014562;28;20123;-49
2022/03/21 06:45:08;;;;;;;81.07;59.10;;;;;;;1.07;100.00;102995.13;5031849;28;20104;-48
2022/03/21 06:47:34;;;;;;;79.65;58.95;;;;;;;0.88;100.00;102916.50;5014288;28;20119;-44
2022/03/21 06:49:59;;;;;;;76.85;57.78;;;;;;;1.49;100.00;102989.84;5031266;28;20124;-46
2022/03/21 06:52:25;;;;;;;70.65;56.50;;;;;;;1.66;100.00;103000.03;5030650;28;20037;-51
2022/03/21 06:54:51;;;;;;;76.78;56.55;;;;;;;1.68;100.00;102980.22;5031370;28;20038;-47
2022/03/21 06:57:17;;;;;;;79.18;57.35;;;;;;;1.93;100.00;102994.97;5048212;28;20037;-50
2022/03/21 06:59:46;;;;;;;67.93;54.33;;;;;;;2.06;100.00;102999.81;5033983;28;20069;-50
2022/03/21 07:02:12;;;;;;;73.43;55.75;;;;;;;1.82;100.00;102943.47;5051352;28;20128;-50
2022/03/21 07:04:37;;;;;;;74.95;52.97;;;;;;;2.03;100.00;102946.88;5050698;28;20036;-51
2022/03/21 07:07:03;;;;;;;73.40;54.47;;;;;;;2.55;100.00;103007.63;5051549;28;20021;-52
2022/03/21 07:09:28;;;;;;;68.75;53.78;;;;;;;2.43;100.00;102947.41;5033504;28;20029;-51
2022/03/21 07:11:54;;;;;;;63.10;50.17;;;;;;;3.03;100.00;103016.22;5051521;28;20082;-49
2022/03/21 07:14:20;;;;;;;67.78;50.40;;;;;;;3.09;100.00;102979.09;5051535;28;20388;-52
2022/03/21 07:16:46;;;;;;;67.03;53.70;;;;;;;3.69;100.00;103029.59;5051644;28;20090;-50
2022/03/21 07:19:11;;;;;;;64.25;51.85;;;;;;;3.77;100.00;102976.88;5051617;28;20119;-50
2022/03/21 07:21:37;;;;;;;64.80;49.22;;;;;;;4.23;100.00;102979.06;5053957;28;20036;-46
2022/03/21 07:24:03;;;;;;;58.60;47.17;;;;;;;5.00;100.00;103012.41;5054884;28;20033;-50
2022/03/21 07:26:28;;;;;;;55.53;45.65;;;;;;;5.79;100.00;103050.84;5055024;28;20369;-50
2022/03/21 07:28:53;;;;;;;56.75;45.50;;;;;;;6.38;100.00;103064.34;5036944;28;20079;-48
2022/03/21 07:31:19;;;;;;;52.95;44.80;;;;;;;7.15;100.00;103065.81;5054691;28;20053;-53
2022/03/21 07:33:44;;;;;;;52.30;43.97;;;;;;;7.34;100.00;103013.72;5054835;28;20048;-53
2022/03/21 07:36:10;;;;;;;51.80;43.70;;;;;;;8.10;100.00;103027.00;5036961;28;20039;-49
2022/03/21 07:38:36;;;;;;;48.63;43.33;;;;;;;8.36;100.00;103026.50;5037169;28;20068;-52
2022/03/21 07:41:04;;;;;;;54.97;48.50;;;;;;;9.02;100.00;103073.56;5054569;28;20423;-50
2022/03/21 07:43:30;;;;;;;59.78;51.67;;;;;;;9.51;100.00;103089.78;5054990;28;20040;-51
2022/03/21 07:48:39;;;;;;;52.28;44.70;;;;;;;10.10;100.00;103077.84;5039896;28;20144;-53
2022/03/21 07:51:05;;;;;;;50.63;41.35;;;;;;;10.04;100.00;103041.00;5054502;28;20462;-50
2022/03/21 07:53:31;;;;;;;47.15;42.05;;;;;;;10.42;100.00;103079.81;5054569;28;20037;-49
2022/03/21 07:56:00;;;;;;;47.20;42.08;;;;;;;10.56;100.00;103096.53;5054688;28;20388;-52
2022/03/21 07:58:26;;;;;;;45.10;40.17;;;;;;;10.85;100.00;103105.41;5054418;28;20507;-50
2022/03/21 08:00:52;;;;;;;46.03;41.13;;;;;;;11.18;100.00;103108.06;5054528;28;20119;-49
2022/03/21 08:03:17;;;;;;;44.53;39.78;;;;;;;11.75;100.00;103112.53;5036631;28;20060;-51
2022/03/21 08:05:42;;;;;;;45.03;40.28;;;;;;;11.94;100.00;103108.06;5053334;28;20029;-50
2022/03/21 08:08:08;;;;;;;45.53;40.65;;;;;;;12.12;100.00;103118.59;5053641;28;20033;-48
2022/03/21 08:10:34;;;;;;;49.03;43.03;;;;;;;11.91;100.00;103079.03;5035569;28;20392;-52
2022/03/21 08:12:59;;;;;;;45.13;39.20;;;;;;;11.93;100.00;103050.03;5053229;28;20044;-48
2022/03/21 08:15:28;;;;;;;46.22;40.50;;;;;;;12.14;100.00;103089.56;5052982;28;20061;-51
2022/03/21 08:18:00;;;;;;;43.40;38.63;;;;;;;;;;5035818;28;20094;-50
2022/03/21 08:20:33;;;;;;;45.78;40.88;;;;;;;12.78;nan;103113.94;5053022;28;20361;-50
2022/03/21 08:23:09;;;;;;;43.72;39.20;;;;;;;12.70;nan;103073.44;5053010;28;20611;-54
2022/03/21 08:25:36;;;;;;;42.10;37.60;;;;;;;13.27;nan;103118.03;5035156;28;20031;-51
2022/03/21 08:28:02;;;;;;;47.25;40.00;;;;;;;13.33;nan;103127.69;5052805;28;20559;-50
2022/03/21 08:30:32;;;;;;;47.90;39.75;;;;;;;13.57;nan;103065.78;5052611;28;20149;-48
2022/03/21 08:32:58;;;;;;;43.28;38.70;;;;;;;14.10;nan;103072.22;5015244;28;20052;-54
2022/03/21 08:35:23;;;;;;;41.60;37.30;;;;;;;14.34;nan;103110.84;5032790;28;20045;-50
2022/03/21 08:37:49;;;;;;;43.85;39.45;;;;;;;14.52;nan;103120.34;5032717;28;20078;-54
2022/03/21 08:40:15;;;;;;;43.38;38.78;;;;;;;14.94;nan;103111.81;5032777;28;20083;-49
2022/03/21 08:42:41;;;;;;;46.92;41.38;;;;;;;14.73;nan;103114.75;5033186;28;20057;-49
2022/03/21 08:45:07;;;;;;;44.70;40.10;;;;;;;14.82;nan;103119.06;5015050;28;20072;-52
2022/03/21 08:47:34;;;;;;;42.78;38.25;;;;;;;15.26;nan;103119.28;5032686;28;20048;-55
2022/03/21 08:49:59;;;;;;;42.22;37.83;;;;;;;15.38;nan;103081.06;5033103;28;20032;-52
2022/03/21 08:52:25;;;;;;;42.38;38.15;;;;;;;15.67;nan;103121.28;5032602;28;20045;-48
2022/03/21 08:54:51;;;;;;;40.53;36.15;;;;;;;16.18;nan;103122.09;5015116;28;20041;-51
2022/03/21 08:57:16;;;;;;;41.83;37.58;;;;;;;16.24;nan;103132.59;5032305;28;20116;-48
2022/03/21 08:59:42;;;;;;;41.88;37.47;;;;;;;16.49;nan;103119.69;5014833;28;20049;-53
2022/03/21 09:02:10;;;;;;;38.58;34.65;;;;;;;16.59;nan;103124.81;5014686;28;20037;-50
2022/03/21 09:04:35;;;;;;;38.20;34.40;;;;;;;16.73;nan;103128.06;5032710;28;20103;-52
2022/03/21 09:07:01;;;;;;;36.85;33.25;;;;;;;17.31;nan;103119.59;5032378;28;20496;-48
2022/03/21 09:09:27;;;;;;;39.72;35.78;;;;;;;17.55;nan;103118.16;5014716;28;20037;-50
2022/03/21 09:11:52;;;;;;;37.65;33.35;;;;;;;17.48;nan;103070.41;5014690;28;20087;-50
2022/03/21 09:14:18;;;;;;;37.88;33.90;;;;;;;17.88;nan;103117.28;5032260;28;20514;-51
2022/03/21 09:16:43;;;;;;;34.90;31.30;;;;;;;17.93;nan;103093.16;5014280;28;20033;-53
2022/03/21 09:19:09;;;;;;;36.42;32.00;;;;;;;18.05;nan;103113.25;5031698;28;20065;-49
2022/03/21 09:21:36;;;;;;;35.78;32.17;;;;;;;18.25;nan;103116.25;4998097;28;20057;-50
2022/03/21 09:24:02;;;;;;;35.13;31.65;;;;;;;18.42;nan;103101.50;5014242;28;20037;-48
2022/03/21 09:26:28;;;;;;;33.75;30.35;;;;;;;;;;5014527;28;20063;-49
2022/03/21 09:29:00;;;;;;;36.33;32.73;;;;;;;;;;5031897;28;20398;-49
2022/03/21 09:31:25;;;;;;;33.85;30.27;;;;;;;;;;5039346;28;20318;-49
2022/03/21 09:33:51;;;;;;;32.83;29.33;;;;;;;;;;5051796;28;20032;-49
2022/03/21 09:36:16;;;;;;;33.07;29.77;;;;;;;;;;5051425;28;20392;-48
2022/03/21 09:38:41;;;;;;;32.93;29.50;;;;;;;19.49;nan;103115.09;5051436;28;20320;-52
2022/03/21 09:41:13;;;;;;;31.73;28.42;;;;;;;19.44;nan;103067.16;5051655;28;20036;-51
2022/03/21 09:43:39;;;;;;;32.13;28.27;;;;;;;;;;5050775;28;20033;-50
2022/03/21 09:46:07;;;;;;;30.45;27.23;;;;;;;20.40;nan;103112.72;5033708;28;20033;-51
2022/03/21 09:48:33;;;;;;;28.55;25.63;;;;;;;20.69;nan;103111.63;5033645;28;20045;-50
2022/03/21 09:50:59;;;;;;;29.05;25.65;;;;;;;20.83;nan;103114.63;5051207;28;20056;-52
2022/03/21 09:53:25;;;;;;;27.70;24.90;;;;;;;21.08;nan;103111.88;5033368;28;20045;-50
2022/03/21 09:55:51;;;;;;;27.70;24.77;;;;;;;;;;5033621;28;20047;-50
2022/03/21 09:58:16;;;;;;;27.25;24.05;;;;;;;;;;5051028;28;20036;-49
2022/03/21 10:00:42;;;;;;;28.70;25.43;;;;;;;;;;5051466;28;20064;-51
2022/03/21 10:03:08;;;;;;;27.23;24.42;;;;;;;;;;5051053;28;20044;-52
2022/03/21 10:05:38;;;;;;;29.42;24.63;;;;;;;;;;5050739;28;20045;-49
2022/03/21 10:08:09;;;;;;;27.48;24.65;;;;;;;;;;5050870;28;20071;-48
2022/03/21 10:10:34;;;;;;;26.80;23.98;;;;;;;;;;5032817;28;20033;-50
2022/03/21 10:13:00;;;;;;;25.27;22.40;;;;;;;;;;5050683;28;20474;-50
2022/03/21 10:15:28;;;;;;;25.60;22.90;;;;;;;;;;5050940;28;20357;-52
2022/03/21 10:18:07;;;;;;;25.73;23.02;;;;;;;22.35;nan;103095.63;5050843;28;20116;-49
2022/03/21 10:20:34;;;;;;;24.40;21.77;;;;;;;22.39;nan;103070.38;5051089;28;20033;-52
2022/03/21 10:23:14;;;;;;;25.92;23.33;;;;;;;;;;5032973;28;20037;-52
2022/03/21 10:25:39;;;;;;;26.60;23.48;;;;;;;;;;5050871;28;20547;-51
2022/03/21 10:28:04;;;;;;;25.85;23.05;;;;;;;23.04;nan;103099.47;5033096;28;20124;-50
2022/03/21 10:30:31;;;;;;;26.63;23.83;;;;;;;23.36;nan;103100.56;5050667;28;20037;-57
2022/03/21 10:32:59;;;;;;;26.10;23.35;;;;;;;23.33;nan;103106.97;5051001;28;20045;-56
2022/03/21 10:35:29;;;;;;;25.75;22.52;;;;;;;23.59;nan;103091.34;5051411;28;20037;-53
2022/03/21 10:37:58;;;;;;;23.27;20.50;;;;;;;;;;5050902;28;20036;-50
2022/03/21 10:40:24;;;;;;;23.58;20.15;;;;;;;23.83;nan;103096.34;5050776;28;20295;-51
2022/03/21 10:43:06;;;;;;;22.63;20.27;;;;;;;23.33;nan;103104.28;5032976;28;20045;-53
2022/03/21 10:45:35;;;;;;;20.48;18.30;;;;;;;23.43;nan;103097.53;5050637;28;20503;-53
2022/03/21 10:48:01;;;;;;;20.50;17.80;;;;;;;23.13;nan;103042.63;5050686;28;20448;-52
2022/03/21 10:50:31;;;;;;;21.25;17.77;;;;;;;23.34;nan;103048.72;5032672;28;20037;-52
2022/03/21 10:53:08;;;;;;;19.13;17.13;;;;;;;23.55;nan;103095.19;5050778;28;20028;-53
2022/03/21 10:55:33;;;;;;;11.63;10.52;;;;;;;23.64;nan;103086.63;5035393;28;20037;-51
2022/03/21 10:57:59;;;;;;;13.98;11.70;;;;;;;24.06;nan;103076.28;5054717;28;20063;-53
2022/03/21 11:00:28;;;;;;;14.40;12.85;;;;;;;23.30;nan;103026.50;5054403;28;20041;-54
2022/03/21 11:03:16;;;;;;;12.82;10.90;;;;;;;22.81;nan;103071.06;5054238;28;20029;-50
2022/03/21 11:05:48;;;;;;;15.63;12.07;;;;;;;23.50;nan;103044.31;5054523;28;20091;-53
2022/03/21 11:08:18;;;;;;;16.02;14.30;;;;;;;24.52;nan;103086.31;5036429;28;20494;-55
2022/03/21 11:10:45;;;;;;;16.20;14.50;;;;;;;24.89;nan;103073.50;5053961;28;20033;-54
2022/03/21 11:13:10;;;;;;;15.15;13.18;;;;;;;24.82;nan;103082.88;5036291;28;20360;-52
2022/03/21 11:15:37;;;;;;;13.65;12.32;;;;;;;;;;5036608;28;20388;-55
2022/03/21 11:18:04;;;;;;;14.15;12.75;;;;;;;;;;5054014;28;20033;-54
2022/03/21 11:20:29;;;;;;;15.48;12.60;;;;;;;;;;5054055;28;20112;-51
2022/03/21 11:22:56;;;;;;;13.73;12.27;;;;;;;;;;5053812;28;20473;-54
2022/03/21 11:25:23;;;;;;;16.23;12.95;;;;;;;25.27;nan;103068.56;5047612;28;20047;-52
2022/03/21 11:27:49;;;;;;;14.85;12.90;;;;;;;;;;5028274;28;20037;-55
2022/03/21 11:30:18;;;;;;;16.10;14.40;;;;;;;25.36;nan;103068.91;5044212;28;20424;-56
2022/03/21 11:33:02;;;;;;;15.75;13.95;;;;;;;25.62;nan;103073.63;5050140;28;20049;-50
2022/03/21 11:35:28;;;;;;;18.27;14.20;;;;;;;25.28;nan;103029.91;5042913;28;20041;-54
2022/03/21 11:37:57;;;;;;;15.60;13.70;;;;;;;26.20;nan;103060.13;5040178;28;20060;-52